Terminal Aerodrome Forecast
Issued by NWS Cleveland, OH

Home | Current Version | Previous Version | Graphics & Text | Print | Product List | Glossary On
Versions: 1 2 3 4 5 6 7 8 9 10 11 12 13 14 15 16 17 18 19 20 21 22 23 24 25 26 27 28 29
869
FTUS41 KCLE 261740
TAFCLE
TAF
KCLE 261740Z 2618/2724 01012KT 5SM BR OVC008
      TEMPO 2618/2620 OVC004
     FM271200 06010KT P6SM OVC012
     FM271500 06010KT P6SM SCT012 BKN035=

USA.gov is the U.S. government's official web portal to all federal, state and local government web resources and services.